Augusta, Michigan
Current Conditions -  °F | °C
As of 2:53 AM on Monday 26 Jan 2015 (Local Time) from KBTL Reporting Station
Clear Clear  
Wind Chill: -15°   Ceiling: Unl
Heat Index: -9°   Visibility: 10mi
Dew Point: -13°   Wind: 7mph
Humidity: 74%   Direction: 50°NE
Pressure: 29.95"   Gusts: NA
Location:  42.34°N, 85.35°W
Report Text: KBTL 260753Z 05006KT 10SM CLR M09/M13 A2995 RMK AO2 SLP158 T10941133
Loading
Personal Weather Stations






























Interactive Weather Map New forecast layout! Learn more

10-Day Weather Forecast

Advertisements
Track Severe Weather on mobile